sensor_id;sensor_type;location;lat;lon;timestamp;noise_LAeq;noise_LA_min;noise_LA_max;noise_LA01;noise_LA95
77729;Laerm;68312;53.502;10.030;2023-03-12T00:01:18;38.42;35.50;48.45;;
77729;Laerm;68312;53.502;10.030;2023-03-12T00:03:45;41.32;35.88;54.43;;
77729;Laerm;68312;53.502;10.030;2023-03-12T00:06:11;39.84;36.98;48.43;;
77729;Laerm;68312;53.502;10.030;2023-03-12T00:08:40;39.66;36.29;49.79;;
77729;Laerm;68312;53.502;10.030;2023-03-12T00:11:12;38.94;35.13;52.39;;
77729;Laerm;68312;53.502;10.030;2023-03-12T00:13:39;43.46;35.77;60.39;;
77729;Laerm;68312;53.502;10.030;2023-03-12T00:16:14;38.39;35.39;48.37;;
77729;Laerm;68312;53.502;10.030;2023-03-12T00:18:42;41.91;35.28;54.61;;
77729;Laerm;68312;53.502;10.030;2023-03-12T00:21:09;38.88;35.07;45.95;;
77729;Laerm;68312;53.502;10.030;2023-03-12T00:23:35;41.64;35.42;56.66;;
77729;Laerm;68312;53.502;10.030;2023-03-12T00:26:05;37.64;34.85;47.60;;
77729;Laerm;68312;53.502;10.030;2023-03-12T00:28:32;38.73;34.45;48.02;;
77729;Laerm;68312;53.502;10.030;2023-03-12T00:31:00;38.18;34.78;48.50;;
77729;Laerm;68312;53.502;10.030;2023-03-12T00:33:27;38.49;35.37;55.59;;
77729;Laerm;68312;53.502;10.030;2023-03-12T00:35:55;41.64;35.60;55.80;;
77729;Laerm;68312;53.502;10.030;2023-03-12T00:38:21;38.03;34.82;46.44;;
77729;Laerm;68312;53.502;10.030;2023-03-12T00:40:47;40.03;34.87;53.11;;
77729;Laerm;68312;53.502;10.030;2023-03-12T00:43:15;39.18;35.36;46.76;;
77729;Laerm;68312;53.502;10.030;2023-03-12T00:45:41;40.94;34.63;57.23;;
77729;Laerm;68312;53.502;10.030;2023-03-12T00:48:06;40.39;35.28;55.14;;
77729;Laerm;68312;53.502;10.030;2023-03-12T00:50:35;40.35;34.71;53.63;;
77729;Laerm;68312;53.502;10.030;2023-03-12T00:53:00;38.02;33.83;48.31;;
77729;Laerm;68312;53.502;10.030;2023-03-12T00:55:26;37.57;34.33;46.50;;
77729;Laerm;68312;53.502;10.030;2023-03-12T00:57:54;39.26;34.98;60.14;;
77729;Laerm;68312;53.502;10.030;2023-03-12T01:00:20;37.12;34.08;48.88;;
77729;Laerm;68312;53.502;10.030;2023-03-12T01:02:46;38.66;34.95;46.78;;
77729;Laerm;68312;53.502;10.030;2023-03-12T01:05:13;38.07;34.63;45.47;;
77729;Laerm;68312;53.502;10.030;2023-03-12T01:07:39;40.30;35.12;57.22;;
77729;Laerm;68312;53.502;10.030;2023-03-12T01:10:07;37.67;34.37;50.03;;
77729;Laerm;68312;53.502;10.030;2023-03-12T01:12:33;38.09;34.47;53.18;;
77729;Laerm;68312;53.502;10.030;2023-03-12T01:14:58;37.29;34.28;45.62;;
77729;Laerm;68312;53.502;10.030;2023-03-12T01:17:24;38.15;34.35;47.89;;
77729;Laerm;68312;53.502;10.030;2023-03-12T01:19:49;37.64;34.68;49.43;;
77729;Laerm;68312;53.502;10.030;2023-03-12T01:22:15;38.73;34.62;48.39;;
77729;Laerm;68312;53.502;10.030;2023-03-12T01:24:40;37.17;34.12;48.60;;
77729;Laerm;68312;53.502;10.030;2023-03-12T01:27:06;38.44;34.74;52.20;;
77729;Laerm;68312;53.502;10.030;2023-03-12T01:29:31;36.86;33.79;46.95;;
77729;Laerm;68312;53.502;10.030;2023-03-12T01:32:00;36.42;33.23;46.92;;
77729;Laerm;68312;53.502;10.030;2023-03-12T01:34:25;36.68;33.28;47.10;;
77729;Laerm;68312;53.502;10.030;2023-03-12T01:36:51;36.94;33.76;47.34;;
77729;Laerm;68312;53.502;10.030;2023-03-12T01:39:17;38.06;34.07;52.74;;
77729;Laerm;68312;53.502;10.030;2023-03-12T01:41:42;36.38;33.09;48.63;;
77729;Laerm;68312;53.502;10.030;2023-03-12T01:44:13;38.57;33.94;47.82;;
77729;Laerm;68312;53.502;10.030;2023-03-12T01:46:42;38.81;35.09;46.29;;
77729;Laerm;68312;53.502;10.030;2023-03-12T01:49:23;38.88;35.04;52.41;;
77729;Laerm;68312;53.502;10.030;2023-03-12T01:52:09;38.75;35.43;47.19;;
77729;Laerm;68312;53.502;10.030;2023-03-12T01:54:46;38.34;35.46;46.22;;
77729;Laerm;68312;53.502;10.030;2023-03-12T01:57:21;38.44;35.00;47.05;;
77729;Laerm;68312;53.502;10.030;2023-03-12T01:59:55;38.67;34.91;46.19;;
77729;Laerm;68312;53.502;10.030;2023-03-12T02:02:25;38.09;34.60;46.83;;
77729;Laerm;68312;53.502;10.030;2023-03-12T02:05:26;38.18;34.61;44.82;;
77729;Laerm;68312;53.502;10.030;2023-03-12T02:07:54;40.03;34.28;51.89;;
77729;Laerm;68312;53.502;10.030;2023-03-12T02:10:22;37.81;34.62;45.66;;
77729;Laerm;68312;53.502;10.030;2023-03-12T02:12:49;37.74;34.60;44.49;;
77729;Laerm;68312;53.502;10.030;2023-03-12T02:15:15;38.42;34.92;44.11;;
77729;Laerm;68312;53.502;10.030;2023-03-12T02:17:41;39.54;35.01;45.68;;
77729;Laerm;68312;53.502;10.030;2023-03-12T02:26:24;38.78;34.47;49.53;;
77729;Laerm;68312;53.502;10.030;2023-03-12T02:28:52;38.41;34.83;46.32;;
77729;Laerm;68312;53.502;10.030;2023-03-12T02:31:25;36.98;33.72;45.95;;
77729;Laerm;68312;53.502;10.030;2023-03-12T02:33:54;36.14;33.34;42.95;;
77729;Laerm;68312;53.502;10.030;2023-03-12T02:36:23;37.44;34.26;47.25;;
77729;Laerm;68312;53.502;10.030;2023-03-12T02:38:52;37.28;34.26;43.84;;
77729;Laerm;68312;53.502;10.030;2023-03-12T02:41:30;38.04;33.97;49.00;;
77729;Laerm;68312;53.502;10.030;2023-03-12T02:44:14;39.73;33.82;51.31;;
77729;Laerm;68312;53.502;10.030;2023-03-12T02:46:49;36.33;33.50;49.90;;
77729;Laerm;68312;53.502;10.030;2023-03-12T02:49:19;40.43;34.39;56.32;;
77729;Laerm;68312;53.502;10.030;2023-03-12T02:51:46;42.48;33.47;58.29;;
77729;Laerm;68312;53.502;10.030;2023-03-12T02:54:16;38.05;33.99;48.38;;
77729;Laerm;68312;53.502;10.030;2023-03-12T02:56:43;36.70;33.82;55.80;;
77729;Laerm;68312;53.502;10.030;2023-03-12T02:59:10;36.46;33.55;44.29;;
77729;Laerm;68312;53.502;10.030;2023-03-12T03:01:37;36.69;33.58;44.10;;
77729;Laerm;68312;53.502;10.030;2023-03-12T03:04:06;41.77;33.78;57.47;;
77729;Laerm;68312;53.502;10.030;2023-03-12T03:06:37;36.45;33.38;46.58;;
77729;Laerm;68312;53.502;10.030;2023-03-12T03:09:04;37.56;32.82;51.04;;
77729;Laerm;68312;53.502;10.030;2023-03-12T03:11:32;36.80;34.15;46.90;;
77729;Laerm;68312;53.502;10.030;2023-03-12T03:13:58;36.54;33.29;43.91;;
77729;Laerm;68312;53.502;10.030;2023-03-12T03:16:24;36.61;33.85;43.93;;
77729;Laerm;68312;53.502;10.030;2023-03-12T03:18:50;38.62;34.34;49.49;;
77729;Laerm;68312;53.502;10.030;2023-03-12T03:21:17;36.12;32.81;42.97;;
77729;Laerm;68312;53.502;10.030;2023-03-12T03:23:46;39.67;33.16;54.85;;
77729;Laerm;68312;53.502;10.030;2023-03-12T03:26:19;36.75;33.23;45.13;;
77729;Laerm;68312;53.502;10.030;2023-03-12T03:28:45;36.51;33.38;41.16;;
77729;Laerm;68312;53.502;10.030;2023-03-12T03:31:11;36.23;33.63;42.69;;
77729;Laerm;68312;53.502;10.030;2023-03-12T03:33:38;40.13;34.47;55.22;;
77729;Laerm;68312;53.502;10.030;2023-03-12T03:36:06;38.57;35.37;44.53;;
77729;Laerm;68312;53.502;10.030;2023-03-12T03:38:33;37.91;34.70;42.60;;
77729;Laerm;68312;53.502;10.030;2023-03-12T03:41:00;38.03;33.69;45.02;;
77729;Laerm;68312;53.502;10.030;2023-03-12T03:43:26;39.41;34.25;46.71;;
77729;Laerm;68312;53.502;10.030;2023-03-12T03:46:01;40.92;36.10;47.63;;
77729;Laerm;68312;53.502;10.030;2023-03-12T03:48:27;40.13;33.98;48.05;;
77729;Laerm;68312;53.502;10.030;2023-03-12T03:50:53;41.16;34.97;47.42;;
77729;Laerm;68312;53.502;10.030;2023-03-12T03:53:19;40.46;34.74;47.06;;
77729;Laerm;68312;53.502;10.030;2023-03-12T03:55:46;40.94;36.21;49.70;;
77729;Laerm;68312;53.502;10.030;2023-03-12T03:58:12;38.17;34.16;44.02;;
77729;Laerm;68312;53.502;10.030;2023-03-12T04:00:38;39.93;35.54;46.94;;
77729;Laerm;68312;53.502;10.030;2023-03-12T04:03:04;42.58;37.81;49.86;;
77729;Laerm;68312;53.502;10.030;2023-03-12T04:05:30;43.66;38.43;59.17;;
77729;Laerm;68312;53.502;10.030;2023-03-12T04:07:56;43.59;39.25;48.15;;
77729;Laerm;68312;53.502;10.030;2023-03-12T04:10:27;42.02;37.92;48.26;;
77729;Laerm;68312;53.502;10.030;2023-03-12T04:12:54;42.58;37.66;48.22;;
77729;Laerm;68312;53.502;10.030;2023-03-12T04:15:20;41.57;37.27;47.11;;
77729;Laerm;68312;53.502;10.030;2023-03-12T04:17:46;44.68;40.40;51.44;;
77729;Laerm;68312;53.502;10.030;2023-03-12T04:20:12;43.93;39.66;49.67;;
77729;Laerm;68312;53.502;10.030;2023-03-12T04:22:38;44.12;39.20;56.29;;
77729;Laerm;68312;53.502;10.030;2023-03-12T04:25:05;42.03;37.64;49.28;;
77729;Laerm;68312;53.502;10.030;2023-03-12T04:27:33;41.23;35.68;47.28;;
77729;Laerm;68312;53.502;10.030;2023-03-12T04:29:58;43.39;38.86;49.18;;
77729;Laerm;68312;53.502;10.030;2023-03-12T04:32:24;43.58;39.59;47.73;;
77729;Laerm;68312;53.502;10.030;2023-03-12T04:34:49;42.93;39.94;46.19;;
77729;Laerm;68312;53.502;10.030;2023-03-12T04:37:18;43.60;40.33;48.40;;
77729;Laerm;68312;53.502;10.030;2023-03-12T04:39:44;43.04;38.89;48.98;;
77729;Laerm;68312;53.502;10.030;2023-03-12T04:42:10;43.25;39.82;46.71;;
77729;Laerm;68312;53.502;10.030;2023-03-12T04:44:36;41.27;37.19;45.71;;
77729;Laerm;68312;53.502;10.030;2023-03-12T04:47:03;42.81;37.46;46.67;;
77729;Laerm;68312;53.502;10.030;2023-03-12T04:49:29;43.06;38.12;50.12;;
77729;Laerm;68312;53.502;10.030;2023-03-12T04:51:55;40.52;36.38;47.38;;
77729;Laerm;68312;53.502;10.030;2023-03-12T04:54:21;41.64;35.76;48.18;;
77729;Laerm;68312;53.502;10.030;2023-03-12T04:56:49;43.50;37.90;49.49;;
77729;Laerm;68312;53.502;10.030;2023-03-12T04:59:15;42.70;38.71;50.30;;
77729;Laerm;68312;53.502;10.030;2023-03-12T05:01:41;42.58;36.46;50.12;;
77729;Laerm;68312;53.502;10.030;2023-03-12T05:04:07;42.18;36.31;57.68;;
77729;Laerm;68312;53.502;10.030;2023-03-12T05:06:33;44.16;39.04;50.00;;
77729;Laerm;68312;53.502;10.030;2023-03-12T05:08:59;44.10;39.28;59.31;;
77729;Laerm;68312;53.502;10.030;2023-03-12T05:11:25;44.24;37.79;53.88;;
77729;Laerm;68312;53.502;10.030;2023-03-12T05:13:53;47.27;39.90;61.60;;
77729;Laerm;68312;53.502;10.030;2023-03-12T05:16:19;43.52;38.82;54.43;;
77729;Laerm;68312;53.502;10.030;2023-03-12T05:18:45;43.49;38.69;50.20;;
77729;Laerm;68312;53.502;10.030;2023-03-12T05:21:20;42.45;36.36;54.13;;
77729;Laerm;68312;53.502;10.030;2023-03-12T05:23:46;45.35;39.58;55.79;;
77729;Laerm;68312;53.502;10.030;2023-03-12T05:26:22;44.52;39.72;56.40;;
77729;Laerm;68312;53.502;10.030;2023-03-12T05:28:49;44.56;40.01;57.48;;
77729;Laerm;68312;53.502;10.030;2023-03-12T05:31:16;45.06;39.53;52.97;;
77729;Laerm;68312;53.502;10.030;2023-03-12T05:33:42;44.12;37.85;51.13;;
77729;Laerm;68312;53.502;10.030;2023-03-12T05:36:10;44.78;39.26;55.15;;
77729;Laerm;68312;53.502;10.030;2023-03-12T05:38:36;42.87;37.30;50.49;;
77729;Laerm;68312;53.502;10.030;2023-03-12T05:41:02;43.73;39.18;51.20;;
77729;Laerm;68312;53.502;10.030;2023-03-12T05:43:28;45.87;38.95;56.99;;
77729;Laerm;68312;53.502;10.030;2023-03-12T05:46:00;44.45;39.49;55.56;;
77729;Laerm;68312;53.502;10.030;2023-03-12T05:48:27;46.45;39.87;65.78;;
77729;Laerm;68312;53.502;10.030;2023-03-12T05:50:52;44.63;40.54;53.85;;
77729;Laerm;68312;53.502;10.030;2023-03-12T05:53:18;43.74;39.16;49.40;;
77729;Laerm;68312;53.502;10.030;2023-03-12T05:55:43;43.44;39.13;52.64;;
77729;Laerm;68312;53.502;10.030;2023-03-12T05:58:09;43.62;39.72;48.51;;
77729;Laerm;68312;53.502;10.030;2023-03-12T06:00:35;45.07;40.00;53.75;;
77729;Laerm;68312;53.502;10.030;2023-03-12T06:03:07;44.27;38.99;54.02;;
77729;Laerm;68312;53.502;10.030;2023-03-12T06:05:35;44.57;39.82;54.13;;
77729;Laerm;68312;53.502;10.030;2023-03-12T06:08:03;44.50;39.42;55.60;;
77729;Laerm;68312;53.502;10.030;2023-03-12T06:10:31;44.27;40.58;50.31;;
77729;Laerm;68312;53.502;10.030;2023-03-12T06:12:57;44.43;40.22;54.43;;
77729;Laerm;68312;53.502;10.030;2023-03-12T06:15:25;44.66;40.33;54.03;;
77729;Laerm;68312;53.502;10.030;2023-03-12T06:17:51;43.94;40.25;48.17;;
77729;Laerm;68312;53.502;10.030;2023-03-12T06:20:17;44.19;40.17;57.32;;
77729;Laerm;68312;53.502;10.030;2023-03-12T06:22:45;45.35;41.40;54.10;;
77729;Laerm;68312;53.502;10.030;2023-03-12T06:25:11;43.42;39.21;51.30;;
77729;Laerm;68312;53.502;10.030;2023-03-12T06:27:36;43.87;39.01;49.41;;
77729;Laerm;68312;53.502;10.030;2023-03-12T06:30:04;44.93;40.87;57.95;;
77729;Laerm;68312;53.502;10.030;2023-03-12T06:32:33;44.56;40.49;51.26;;
77729;Laerm;68312;53.502;10.030;2023-03-12T06:34:59;44.81;40.96;53.42;;
77729;Laerm;68312;53.502;10.030;2023-03-12T06:37:26;45.37;41.06;57.80;;
77729;Laerm;68312;53.502;10.030;2023-03-12T06:39:52;46.79;42.07;61.28;;
77729;Laerm;68312;53.502;10.030;2023-03-12T06:42:18;44.99;41.14;50.78;;
77729;Laerm;68312;53.502;10.030;2023-03-12T06:44:45;44.04;40.04;55.98;;
77729;Laerm;68312;53.502;10.030;2023-03-12T06:47:10;44.65;41.31;53.53;;
77729;Laerm;68312;53.502;10.030;2023-03-12T06:49:36;59.45;40.96;76.34;;
77729;Laerm;68312;53.502;10.030;2023-03-12T06:52:03;45.33;39.72;58.58;;
77729;Laerm;68312;53.502;10.030;2023-03-12T06:54:29;45.64;41.27;52.11;;
77729;Laerm;68312;53.502;10.030;2023-03-12T06:56:54;45.86;41.54;57.57;;
77729;Laerm;68312;53.502;10.030;2023-03-12T06:59:20;45.64;41.14;57.85;;
77729;Laerm;68312;53.502;10.030;2023-03-12T07:01:47;45.10;40.73;56.24;;
77729;Laerm;68312;53.502;10.030;2023-03-12T07:04:13;62.91;40.76;77.80;;
77729;Laerm;68312;53.502;10.030;2023-03-12T07:06:39;44.73;41.50;50.24;;
77729;Laerm;68312;53.502;10.030;2023-03-12T07:09:05;44.17;40.22;50.97;;
77729;Laerm;68312;53.502;10.030;2023-03-12T07:11:31;45.62;41.10;64.19;;
77729;Laerm;68312;53.502;10.030;2023-03-12T07:13:57;45.61;41.87;53.91;;
77729;Laerm;68312;53.502;10.030;2023-03-12T07:16:22;46.63;41.67;59.58;;
77729;Laerm;68312;53.502;10.030;2023-03-12T07:18:48;46.76;41.89;55.10;;
77729;Laerm;68312;53.502;10.030;2023-03-12T07:21:14;46.52;40.30;56.97;;
77729;Laerm;68312;53.502;10.030;2023-03-12T07:23:48;46.18;41.65;55.09;;
77729;Laerm;68312;53.502;10.030;2023-03-12T07:26:14;45.61;41.40;56.64;;
77729;Laerm;68312;53.502;10.030;2023-03-12T07:28:40;46.66;41.32;60.74;;
77729;Laerm;68312;53.502;10.030;2023-03-12T07:31:06;46.50;42.97;53.23;;
77729;Laerm;68312;53.502;10.030;2023-03-12T07:33:33;46.96;43.56;52.30;;
77729;Laerm;68312;53.502;10.030;2023-03-12T07:35:59;46.68;42.51;54.76;;
77729;Laerm;68312;53.502;10.030;2023-03-12T07:38:26;46.53;42.67;54.18;;
77729;Laerm;68312;53.502;10.030;2023-03-12T07:41:00;49.75;43.69;59.97;;
77729;Laerm;68312;53.502;10.030;2023-03-12T07:43:26;46.95;43.28;52.32;;
77729;Laerm;68312;53.502;10.030;2023-03-12T07:45:51;46.02;42.26;55.16;;
77729;Laerm;68312;53.502;10.030;2023-03-12T07:48:17;48.41;43.44;59.23;;
77729;Laerm;68312;53.502;10.030;2023-03-12T07:50:47;46.73;42.26;61.06;;
77729;Laerm;68312;53.502;10.030;2023-03-12T07:53:13;48.56;42.50;62.98;;
77729;Laerm;68312;53.502;10.030;2023-03-12T07:55:38;47.35;44.16;56.87;;
77729;Laerm;68312;53.502;10.030;2023-03-12T07:58:04;46.45;43.14;55.83;;
77729;Laerm;68312;53.502;10.030;2023-03-12T08:00:30;46.16;42.59;54.64;;
77729;Laerm;68312;53.502;10.030;2023-03-12T08:02:56;46.28;42.31;62.17;;
77729;Laerm;68312;53.502;10.030;2023-03-12T08:05:22;46.19;41.86;53.93;;
77729;Laerm;68312;53.502;10.030;2023-03-12T08:07:51;46.32;42.37;52.58;;
77729;Laerm;68312;53.502;10.030;2023-03-12T08:10:18;46.28;42.41;53.60;;
77729;Laerm;68312;53.502;10.030;2023-03-12T08:12:44;46.20;42.73;56.94;;
77729;Laerm;68312;53.502;10.030;2023-03-12T08:15:11;47.57;42.54;60.29;;
77729;Laerm;68312;53.502;10.030;2023-03-12T08:17:38;47.86;43.46;57.46;;
77729;Laerm;68312;53.502;10.030;2023-03-12T08:20:05;46.53;42.75;55.23;;
77729;Laerm;68312;53.502;10.030;2023-03-12T08:22:35;46.47;41.08;54.09;;
77729;Laerm;68312;53.502;10.030;2023-03-12T08:25:01;47.84;44.08;59.65;;
77729;Laerm;68312;53.502;10.030;2023-03-12T08:27:26;47.89;43.98;54.22;;
77729;Laerm;68312;53.502;10.030;2023-03-12T08:29:52;47.65;43.53;58.03;;
77729;Laerm;68312;53.502;10.030;2023-03-12T08:32:17;47.89;43.90;54.97;;
77729;Laerm;68312;53.502;10.030;2023-03-12T08:34:43;48.31;44.20;60.72;;
77729;Laerm;68312;53.502;10.030;2023-03-12T08:37:08;49.21;44.99;56.95;;
77729;Laerm;68312;53.502;10.030;2023-03-12T08:39:34;47.37;44.02;55.07;;
77729;Laerm;68312;53.502;10.030;2023-03-12T08:42:03;48.25;44.50;58.78;;
77729;Laerm;68312;53.502;10.030;2023-03-12T08:44:30;48.68;43.87;57.78;;
77729;Laerm;68312;53.502;10.030;2023-03-12T08:46:58;49.14;44.98;56.83;;
77729;Laerm;68312;53.502;10.030;2023-03-12T08:49:24;48.13;43.84;56.13;;
77729;Laerm;68312;53.502;10.030;2023-03-12T08:51:50;47.77;44.27;55.99;;
77729;Laerm;68312;53.502;10.030;2023-03-12T08:54:20;48.34;44.60;68.29;;
77729;Laerm;68312;53.502;10.030;2023-03-12T08:56:51;48.49;44.66;55.49;;
77729;Laerm;68312;53.502;10.030;2023-03-12T08:59:18;48.88;44.25;54.29;;
77729;Laerm;68312;53.502;10.030;2023-03-12T09:01:45;48.66;44.93;55.84;;
77729;Laerm;68312;53.502;10.030;2023-03-12T09:04:11;48.01;44.46;54.42;;
77729;Laerm;68312;53.502;10.030;2023-03-12T09:06:36;50.66;44.13;63.11;;
77729;Laerm;68312;53.502;10.030;2023-03-12T09:09:03;47.96;44.73;62.95;;
77729;Laerm;68312;53.502;10.030;2023-03-12T09:11:34;48.03;44.63;53.34;;
77729;Laerm;68312;53.502;10.030;2023-03-12T09:14:01;49.02;44.37;58.57;;
77729;Laerm;68312;53.502;10.030;2023-03-12T09:16:27;47.44;44.47;53.30;;
77729;Laerm;68312;53.502;10.030;2023-03-12T09:18:53;48.69;44.94;63.79;;
77729;Laerm;68312;53.502;10.030;2023-03-12T09:21:20;50.53;45.71;59.53;;
77729;Laerm;68312;53.502;10.030;2023-03-12T09:23:48;49.56;45.98;57.80;;
77729;Laerm;68312;53.502;10.030;2023-03-12T09:26:13;49.56;45.84;66.28;;
77729;Laerm;68312;53.502;10.030;2023-03-12T09:28:45;48.41;44.31;52.93;;
77729;Laerm;68312;53.502;10.030;2023-03-12T09:31:12;48.03;44.43;52.95;;
77729;Laerm;68312;53.502;10.030;2023-03-12T09:33:40;49.26;44.58;61.16;;
77729;Laerm;68312;53.502;10.030;2023-03-12T09:36:06;48.96;44.36;56.94;;
77729;Laerm;68312;53.502;10.030;2023-03-12T09:38:35;49.15;45.82;56.91;;
77729;Laerm;68312;53.502;10.030;2023-03-12T09:41:04;50.65;44.32;62.79;;
77729;Laerm;68312;53.502;10.030;2023-03-12T09:46:40;50.41;45.37;60.00;;
77729;Laerm;68312;53.502;10.030;2023-03-12T09:49:40;49.15;45.52;60.56;;
77729;Laerm;68312;53.502;10.030;2023-03-12T09:52:24;49.37;44.50;60.59;;
77729;Laerm;68312;53.502;10.030;2023-03-12T09:55:14;48.42;43.86;62.62;;
77729;Laerm;68312;53.502;10.030;2023-03-12T09:57:47;48.14;44.54;54.30;;
77729;Laerm;68312;53.502;10.030;2023-03-12T10:00:22;47.60;44.14;51.62;;
77729;Laerm;68312;53.502;10.030;2023-03-12T10:03:26;48.78;43.07;61.16;;
77729;Laerm;68312;53.502;10.030;2023-03-12T10:06:10;51.16;43.37;68.29;;
77729;Laerm;68312;53.502;10.030;2023-03-12T10:09:06;55.75;44.28;73.40;;
77729;Laerm;68312;53.502;10.030;2023-03-12T10:11:50;57.23;43.97;72.36;;
77729;Laerm;68312;53.502;10.030;2023-03-12T10:15:13;60.77;44.10;78.52;;
77729;Laerm;68312;53.502;10.030;2023-03-12T10:27:24;48.92;44.71;57.62;;
77729;Laerm;68312;53.502;10.030;2023-03-12T10:29:53;48.43;45.11;57.09;;
77729;Laerm;68312;53.502;10.030;2023-03-12T10:32:38;49.22;45.56;56.63;;
77729;Laerm;68312;53.502;10.030;2023-03-12T10:35:23;48.35;44.79;54.51;;
77729;Laerm;68312;53.502;10.030;2023-03-12T10:38:02;48.78;44.17;60.68;;
77729;Laerm;68312;53.502;10.030;2023-03-12T10:40:34;48.53;44.34;59.42;;
77729;Laerm;68312;53.502;10.030;2023-03-12T10:43:02;48.77;44.68;63.54;;
77729;Laerm;68312;53.502;10.030;2023-03-12T10:46:04;49.56;44.96;61.27;;
77729;Laerm;68312;53.502;10.030;2023-03-12T10:48:36;49.70;46.57;57.55;;
77729;Laerm;68312;53.502;10.030;2023-03-12T10:51:12;49.06;45.96;55.88;;
77729;Laerm;68312;53.502;10.030;2023-03-12T10:53:42;49.76;45.48;58.24;;
77729;Laerm;68312;53.502;10.030;2023-03-12T10:56:17;50.69;46.20;72.19;;
77729;Laerm;68312;53.502;10.030;2023-03-12T10:58:48;48.42;44.69;53.98;;
77729;Laerm;68312;53.502;10.030;2023-03-12T11:01:24;48.70;44.78;55.14;;
77729;Laerm;68312;53.502;10.030;2023-03-12T11:04:06;49.06;44.75;54.84;;
77729;Laerm;68312;53.502;10.030;2023-03-12T11:06:32;50.68;45.68;60.10;;
77729;Laerm;68312;53.502;10.030;2023-03-12T11:09:19;49.47;46.52;54.38;;
77729;Laerm;68312;53.502;10.030;2023-03-12T11:11:49;49.52;45.53;54.85;;
77729;Laerm;68312;53.502;10.030;2023-03-12T11:14:27;49.91;46.16;56.61;;
77729;Laerm;68312;53.502;10.030;2023-03-12T11:16:55;50.26;45.90;60.51;;
77729;Laerm;68312;53.502;10.030;2023-03-12T11:19:33;49.86;45.68;55.57;;
77729;Laerm;68312;53.502;10.030;2023-03-12T11:22:07;50.40;46.08;60.97;;
77729;Laerm;68312;53.502;10.030;2023-03-12T11:24:34;50.36;46.18;56.80;;
77729;Laerm;68312;53.502;10.030;2023-03-12T11:27:39;49.62;45.54;54.62;;
77729;Laerm;68312;53.502;10.030;2023-03-12T11:30:17;49.71;45.64;69.68;;
77729;Laerm;68312;53.502;10.030;2023-03-12T11:32:49;49.72;44.21;77.96;;
77729;Laerm;68312;53.502;10.030;2023-03-12T11:35:40;49.34;44.46;58.32;;
77729;Laerm;68312;53.502;10.030;2023-03-12T11:38:39;50.03;45.13;61.79;;
77729;Laerm;68312;53.502;10.030;2023-03-12T11:44:41;49.20;44.38;58.28;;
77729;Laerm;68312;53.502;10.030;2023-03-12T11:47:51;50.03;45.47;61.87;;
77729;Laerm;68312;53.502;10.030;2023-03-12T11:50:49;48.95;44.56;57.77;;
77729;Laerm;68312;53.502;10.030;2023-03-12T11:56:40;48.81;44.26;56.74;;
77729;Laerm;68312;53.502;10.030;2023-03-12T11:59:56;48.14;44.85;55.77;;
77729;Laerm;68312;53.502;10.030;2023-03-12T12:05:26;49.01;45.66;63.29;;
77729;Laerm;68312;53.502;10.030;2023-03-12T12:11:54;49.68;44.83;65.60;;
77729;Laerm;68312;53.502;10.030;2023-03-12T12:19:04;50.06;43.01;75.09;;
77729;Laerm;68312;53.502;10.030;2023-03-12T12:25:24;47.06;43.84;52.43;;
77729;Laerm;68312;53.502;10.030;2023-03-12T12:31:45;48.49;44.39;66.54;;
77729;Laerm;68312;53.502;10.030;2023-03-12T12:35:01;48.67;44.57;63.47;;
77729;Laerm;68312;53.502;10.030;2023-03-12T12:37:57;48.05;43.88;57.39;;
77729;Laerm;68312;53.502;10.030;2023-03-12T12:40:53;49.49;45.14;61.22;;
77729;Laerm;68312;53.502;10.030;2023-03-12T12:43:32;47.35;43.17;64.88;;
77729;Laerm;68312;53.502;10.030;2023-03-12T12:46:11;47.89;43.92;56.02;;
77729;Laerm;68312;53.502;10.030;2023-03-12T12:48:58;47.29;42.49;58.42;;
77729;Laerm;68312;53.502;10.030;2023-03-12T12:51:41;47.46;43.40;61.78;;
77729;Laerm;68312;53.502;10.030;2023-03-12T13:00:35;48.79;45.31;65.67;;
77729;Laerm;68312;53.502;10.030;2023-03-12T13:03:03;50.95;47.36;65.95;;
77729;Laerm;68312;53.502;10.030;2023-03-12T13:08:02;50.01;45.46;64.84;;
77729;Laerm;68312;53.502;10.030;2023-03-12T13:13:22;49.80;45.94;54.44;;
77729;Laerm;68312;53.502;10.030;2023-03-12T13:15:48;50.22;46.65;67.08;;
77729;Laerm;68312;53.502;10.030;2023-03-12T13:18:24;51.12;46.42;70.95;;
77729;Laerm;68312;53.502;10.030;2023-03-12T13:26:51;50.55;46.58;61.94;;
77729;Laerm;68312;53.502;10.030;2023-03-12T13:31:58;50.63;46.71;58.27;;
77729;Laerm;68312;53.502;10.030;2023-03-12T13:34:29;51.01;47.68;65.93;;
77729;Laerm;68312;53.502;10.030;2023-03-12T13:37:01;50.86;47.03;66.93;;
77729;Laerm;68312;53.502;10.030;2023-03-12T13:41:59;49.90;46.08;57.04;;
77729;Laerm;68312;53.502;10.030;2023-03-12T13:50:00;51.29;48.02;60.18;;
77729;Laerm;68312;53.502;10.030;2023-03-12T13:52:49;51.15;46.51;58.29;;
77729;Laerm;68312;53.502;10.030;2023-03-12T13:55:35;51.87;47.24;70.22;;
77729;Laerm;68312;53.502;10.030;2023-03-12T13:58:12;50.75;46.46;73.56;;
77729;Laerm;68312;53.502;10.030;2023-03-12T14:01:13;50.87;47.16;74.33;;
77729;Laerm;68312;53.502;10.030;2023-03-12T14:03:47;51.26;47.55;72.97;;
77729;Laerm;68312;53.502;10.030;2023-03-12T14:06:21;51.54;47.59;68.80;;
77729;Laerm;68312;53.502;10.030;2023-03-12T14:12:33;51.43;47.41;60.17;;
77729;Laerm;68312;53.502;10.030;2023-03-12T14:15:30;50.31;47.22;56.44;;
77729;Laerm;68312;53.502;10.030;2023-03-12T14:18:23;59.06;48.00;83.52;;
77729;Laerm;68312;53.502;10.030;2023-03-12T14:21:01;50.98;46.23;56.91;;
77729;Laerm;68312;53.502;10.030;2023-03-12T14:23:49;51.60;48.16;58.52;;
77729;Laerm;68312;53.502;10.030;2023-03-12T14:26:27;51.31;47.12;58.27;;
77729;Laerm;68312;53.502;10.030;2023-03-12T14:29:19;52.33;47.43;61.21;;
77729;Laerm;68312;53.502;10.030;2023-03-12T14:31:47;51.84;48.21;63.09;;
77729;Laerm;68312;53.502;10.030;2023-03-12T14:34:21;51.25;47.36;55.01;;
77729;Laerm;68312;53.502;10.030;2023-03-12T14:37:21;52.01;47.67;59.73;;
77729;Laerm;68312;53.502;10.030;2023-03-12T14:40:02;50.93;48.04;54.79;;
77729;Laerm;68312;53.502;10.030;2023-03-12T14:42:34;50.66;46.98;55.76;;
77729;Laerm;68312;53.502;10.030;2023-03-12T14:45:20;51.54;47.09;62.21;;
77729;Laerm;68312;53.502;10.030;2023-03-12T14:47:57;51.90;48.28;69.18;;
77729;Laerm;68312;53.502;10.030;2023-03-12T14:50:37;52.34;48.10;70.31;;
77729;Laerm;68312;53.502;10.030;2023-03-12T14:53:19;53.36;48.66;78.94;;
77729;Laerm;68312;53.502;10.030;2023-03-12T14:58:25;52.00;48.22;57.76;;
77729;Laerm;68312;53.502;10.030;2023-03-12T15:00:59;51.54;47.43;62.95;;
77729;Laerm;68312;53.502;10.030;2023-03-12T15:03:27;54.27;48.59;64.09;;
77729;Laerm;68312;53.502;10.030;2023-03-12T15:05:55;52.00;48.23;59.49;;
77729;Laerm;68312;53.502;10.030;2023-03-12T15:08:24;51.52;47.58;63.65;;
77729;Laerm;68312;53.502;10.030;2023-03-12T15:10:56;50.65;47.37;54.02;;
77729;Laerm;68312;53.502;10.030;2023-03-12T15:13:25;51.39;47.56;64.38;;